Time;durP1;ratioP1;P1;durP2;ratioP2;P2;SDS_P1;SDS_P2;PMS_P1;PMS_P2;Temp;Humidity;BMP_temperature;BMP_pressure;BME280_temperature;BME280_humidity;BME280_pressure;Samples;Min_cycle;Max_cycle;Signal;HPM_P1;HPM_P2
2022/04/19 00:00:39;;;;;;;10.05;4.80;;;8.70;99.40;;;;;;4966067;28;20058;-68
2022/04/19 00:03:05;;;;;;;11.43;5.93;;;8.50;99.90;;;;;;4951149;28;20076;-68
2022/04/19 00:05:32;;;;;;;8.65;5.22;;;8.60;99.90;;;;;;4966175;28;20035;-68
2022/04/19 00:08:02;;;;;;;8.63;4.75;;;8.50;99.90;;;;;;4964308;28;20039;-68
2022/04/19 00:10:28;;;;;;;7.65;4.32;;;8.60;99.90;;;;;;4965802;28;20129;-68
2022/04/19 00:12:55;;;;;;;5.15;4.03;;;8.50;99.90;;;;;;4980633;28;20085;-69
2022/04/19 00:15:21;;;;;;;5.53;4.28;;;8.50;98.20;;;;;;4961789;28;20038;-68
2022/04/19 00:17:48;;;;;;;7.57;4.25;;;8.50;97.60;;;;;;4967360;28;20668;-68
2022/04/19 00:20:14;;;;;;;8.10;4.35;;;8.50;97.10;;;;;;4964772;28;20795;-68
2022/04/19 00:22:39;;;;;;;9.32;4.90;;;8.50;97.00;;;;;;4965874;28;20134;-68
2022/04/19 00:25:06;;;;;;;12.95;5.05;;;8.40;97.10;;;;;;4966666;28;20846;-68
2022/04/19 00:27:33;;;;;;;9.32;5.50;;;8.40;97.40;;;;;;4962214;28;20042;-68
2022/04/19 00:29:59;;;;;;;8.65;4.68;;;8.40;97.50;;;;;;4963820;28;20089;-68
2022/04/19 00:32:25;;;;;;;8.07;4.47;;;8.40;97.70;;;;;;4966078;28;20092;-68
2022/04/19 00:34:51;;;;;;;7.88;5.28;;;8.40;97.60;;;;;;4967180;28;20088;-68
2022/04/19 00:37:21;;;;;;;8.73;5.32;;;8.40;97.50;;;;;;4964805;28;20054;-68
2022/04/19 00:39:47;;;;;;;8.27;4.93;;;8.40;97.50;;;;;;4963026;28;20057;-68
2022/04/19 00:42:12;;;;;;;13.68;6.03;;;8.30;98.20;;;;;;4964865;28;20477;-68
2022/04/19 00:44:39;;;;;;;11.32;5.22;;;8.30;98.80;;;;;;4964019;28;20073;-68
2022/04/19 00:47:09;;;;;;;7.93;5.50;;;8.20;99.30;;;;;;4966883;28;20547;-68
2022/04/19 00:49:42;;;;;;;7.07;5.43;;;8.10;99.90;;;;;;4963831;28;20555;-68
2022/04/19 00:52:08;;;;;;;8.68;6.45;;;8.10;99.90;;;;;;4962313;28;20050;-68
2022/04/19 00:54:34;;;;;;;10.70;6.70;;;8.00;99.90;;;;;;4965913;28;20089;-68
2022/04/19 00:57:01;;;;;;;20.52;7.13;;;8.00;99.80;;;;;;4966000;28;20039;-68
2022/04/19 00:59:26;;;;;;;8.23;5.28;;;8.00;99.70;;;;;;4966755;28;20042;-68
2022/04/19 01:01:52;;;;;;;12.63;6.28;;;8.00;98.60;;;;;;4967106;28;20035;-68
2022/04/19 01:04:18;;;;;;;10.95;6.55;;;8.00;98.60;;;;;;4965677;28;20043;-68
2022/04/19 01:06:44;;;;;;;11.90;6.20;;;7.90;98.70;;;;;;4964756;28;20142;-68
2022/04/19 01:09:11;;;;;;;9.13;5.32;;;8.00;99.00;;;;;;4965811;28;20055;-68
2022/04/19 01:14:21;;;;;;;8.65;5.35;;;7.90;99.00;;;;;;4966945;28;20039;-68
2022/04/19 01:16:48;;;;;;;8.80;4.95;;;7.80;99.00;;;;;;4965955;28;20039;-68
2022/04/19 01:19:15;;;;;;;5.68;4.63;;;7.80;99.00;;;;;;4966342;28;20039;-68
2022/04/19 01:21:54;;;;;;;6.65;5.22;;;7.80;99.20;;;;;;4967429;28;20177;-67
2022/04/19 01:24:21;;;;;;;6.55;4.97;;;7.70;98.80;;;;;;4964665;28;20100;-68
2022/04/19 01:26:47;;;;;;;6.50;4.78;;;7.70;98.80;;;;;;4964397;28;20489;-68
2022/04/19 01:29:13;;;;;;;7.50;5.43;;;7.70;98.90;;;;;;4964541;28;20142;-67
2022/04/19 01:31:41;;;;;;;6.57;4.53;;;7.70;99.00;;;;;;4964988;28;20059;-67
2022/04/19 01:34:07;;;;;;;8.00;5.40;;;7.60;99.20;;;;;;4982594;28;20129;-67
2022/04/19 01:36:37;;;;;;;9.45;5.53;;;7.60;99.10;;;;;;4967755;28;20473;-67
2022/04/19 01:39:09;;;;;;;6.68;4.68;;;7.60;99.20;;;;;;4964126;28;20043;-68
2022/04/19 01:41:35;;;;;;;7.03;5.47;;;7.60;99.20;;;;;;4966139;28;20118;-67
2022/04/19 01:44:01;;;;;;;8.40;5.10;;;7.50;99.30;;;;;;4980976;28;20093;-67
2022/04/19 01:46:27;;;;;;;9.23;5.20;;;7.50;99.50;;;;;;4981341;28;20051;-67
2022/04/19 01:48:55;;;;;;;8.00;5.85;;;7.40;99.60;;;;;;4963163;28;20149;-67
2022/04/19 01:51:21;;;;;;;8.75;5.75;;;7.40;99.90;;;;;;4966460;28;20046;-67
2022/04/19 01:53:49;;;;;;;8.30;5.20;;;7.40;99.90;;;;;;4965758;28;20070;-67
2022/04/19 01:56:14;;;;;;;7.72;5.60;;;7.40;99.90;;;;;;4968409;28;20779;-67
2022/04/19 01:58:40;;;;;;;8.00;5.03;;;7.30;99.90;;;;;;4987982;28;20137;-67
2022/04/19 02:01:06;;;;;;;7.88;5.25;;;7.30;99.90;;;;;;4969346;28;20500;-67
2022/04/19 02:03:31;;;;;;;9.18;5.38;;;7.20;99.90;;;;;;4969232;28;20039;-67
2022/04/19 02:05:57;;;;;;;10.65;5.80;;;7.20;99.90;;;;;;4967334;28;20393;-67
2022/04/19 02:08:23;;;;;;;6.55;5.00;;;7.30;99.90;;;;;;4973080;28;20053;-67
2022/04/19 02:10:48;;;;;;;8.77;4.45;;;7.20;99.90;;;;;;4971849;28;20799;-67
2022/04/19 02:13:14;;;;;;;7.38;4.28;;;7.20;99.90;;;;;;4971560;28;20035;-67
2022/04/19 02:15:40;;;;;;;4.80;4.28;;;7.20;99.90;;;;;;4973204;28;20043;-67
2022/04/19 02:18:05;;;;;;;5.85;4.72;;;7.10;99.90;;;;;;4970537;28;20501;-67
2022/04/19 02:20:31;;;;;;;12.05;6.55;;;7.10;99.90;;;;;;4970046;28;20031;-67
2022/04/19 02:22:57;;;;;;;7.22;5.15;;;7.00;99.90;;;;;;4972574;28;20046;-67
2022/04/19 02:25:24;;;;;;;5.05;4.25;;;7.00;99.90;;;;;;4971049;28;20157;-68
2022/04/19 02:27:50;;;;;;;6.30;4.25;;;7.00;99.90;;;;;;4971885;28;20053;-67
2022/04/19 02:30:17;;;;;;;7.70;5.05;;;6.90;99.90;;;;;;4968515;28;20046;-67
2022/04/19 02:32:50;;;;;;;5.70;4.63;;;6.90;99.90;;;;;;4965645;28;20051;-67
2022/04/19 02:35:23;;;;;;;7.45;4.75;;;6.80;99.90;;;;;;4968526;28;20049;-67
2022/04/19 02:37:50;;;;;;;7.97;5.75;;;6.80;99.90;;;;;;4974201;28;20043;-67
2022/04/19 02:40:19;;;;;;;8.00;5.95;;;6.80;99.90;;;;;;4971277;28;20037;-67
2022/04/19 02:42:46;;;;;;;10.57;5.38;;;6.70;99.90;;;;;;4971017;28;20089;-67
2022/04/19 02:45:12;;;;;;;5.65;4.93;;;6.70;99.90;;;;;;4971664;28;20042;-67
2022/04/19 02:47:38;;;;;;;8.20;5.47;;;6.70;99.90;;;;;;4970330;28;20043;-67
2022/04/19 02:50:05;;;;;;;8.77;5.97;;;6.70;99.90;;;;;;4970290;28;20044;-67
2022/04/19 02:52:31;;;;;;;10.90;5.90;;;6.60;99.90;;;;;;4972282;28;20425;-67
2022/04/19 02:54:57;;;;;;;8.68;5.97;;;6.60;99.90;;;;;;4971042;28;20110;-67
2022/04/19 02:57:22;;;;;;;6.28;5.05;;;6.50;99.90;;;;;;4974068;28;20536;-67
2022/04/19 02:59:48;;;;;;;9.88;5.95;;;6.50;99.90;;;;;;4970989;28;20039;-67
2022/04/19 03:02:14;;;;;;;7.82;5.47;;;6.50;99.90;;;;;;4965863;28;20125;-67
2022/04/19 03:04:40;;;;;;;11.20;6.45;;;6.40;99.90;;;;;;4969087;28;20054;-67
2022/04/19 03:07:05;;;;;;;9.60;5.90;;;6.30;99.90;;;;;;4969061;28;20520;-67
2022/04/19 03:09:31;;;;;;;6.72;5.57;;;6.30;99.90;;;;;;4969989;28;20054;-67
2022/04/19 03:11:57;;;;;;;10.15;6.18;;;6.20;99.90;;;;;;4971458;28;20058;-67
2022/04/19 03:14:25;;;;;;;8.68;6.20;;;6.00;99.90;;;;;;4984373;28;20493;-67
2022/04/19 03:16:51;;;;;;;10.20;6.55;;;5.90;99.90;;;;;;4971967;28;20061;-67
2022/04/19 03:19:18;;;;;;;10.20;6.93;;;5.90;99.90;;;;;;4985952;28;20077;-67
2022/04/19 03:21:43;;;;;;;7.32;5.63;;;5.90;99.90;;;;;;4970509;28;20046;-67
2022/04/19 03:29:38;;;;;;;7.15;5.28;;;5.90;99.90;;;;;;4971064;28;20038;-67
2022/04/19 03:32:05;;;;;;;9.43;6.10;;;5.90;99.90;;;;;;4971284;28;20042;-67
2022/04/19 03:34:30;;;;;;;8.75;6.18;;;5.90;99.90;;;;;;4966098;28;20165;-67
2022/04/19 03:36:56;;;;;;;8.68;5.97;;;5.90;99.90;;;;;;4969768;28;20121;-67
2022/04/19 03:39:21;;;;;;;9.20;5.72;;;5.90;99.90;;;;;;4970612;28;20046;-67
2022/04/19 03:41:47;;;;;;;8.00;6.38;;;5.90;99.90;;;;;;4972003;28;20041;-67
2022/04/19 03:44:13;;;;;;;7.05;5.75;;;5.90;99.90;;;;;;4969926;28;20053;-67
2022/04/19 03:49:24;;;;;;;12.50;6.10;;;5.80;99.90;;;;;;4968936;28;20058;-67
2022/04/19 03:51:50;;;;;;;8.02;5.85;;;5.90;99.90;;;;;;4982397;28;20054;-67
2022/04/19 03:54:16;;;;;;;14.57;6.95;;;5.90;99.90;;;;;;4969983;28;20602;-69
2022/04/19 03:56:42;;;;;;;9.52;6.55;;;5.90;99.90;;;;;;4968370;28;20042;-69
2022/04/19 03:59:09;;;;;;;9.68;6.78;;;5.90;99.90;;;;;;4970193;28;20049;-69
2022/04/19 04:01:37;;;;;;;7.97;6.82;;;5.90;99.90;;;;;;4967934;28;20125;-70
2022/04/19 04:04:03;;;;;;;9.20;6.72;;;6.00;99.90;;;;;;4966960;28;20186;-70
2022/04/19 04:06:28;;;;;;;9.18;6.35;;;6.00;99.90;;;;;;4984414;28;20121;-69
2022/04/19 04:08:54;;;;;;;7.53;6.25;;;6.00;99.90;;;;;;4969737;28;20053;-69
2022/04/19 04:11:20;;;;;;;8.25;6.43;;;6.00;99.90;;;;;;4969058;28;20481;-69
2022/04/19 04:13:45;;;;;;;8.32;6.55;;;6.00;99.90;;;;;;4968338;28;20035;-69
2022/04/19 04:16:11;;;;;;;10.02;7.03;;;6.00;99.90;;;;;;4966535;28;20122;-69
2022/04/19 04:18:39;;;;;;;7.72;5.80;;;6.00;99.90;;;;;;4966898;28;20043;-69
2022/04/19 04:21:05;;;;;;;8.30;6.13;;;6.00;99.90;;;;;;4967954;28;20038;-69
2022/04/19 04:23:33;;;;;;;10.82;7.05;;;6.00;99.90;;;;;;4964358;28;20101;-70
2022/04/19 04:25:59;;;;;;;10.73;6.15;;;6.00;99.90;;;;;;4965673;28;20093;-70
2022/04/19 04:28:25;;;;;;;11.75;6.53;;;6.00;99.90;;;;;;4969303;28;20086;-70
2022/04/19 04:30:51;;;;;;;8.63;6.93;;;6.00;99.90;;;;;;4967628;28;20054;-67
2022/04/19 04:33:16;;;;;;;9.02;6.43;;;6.00;99.90;;;;;;4965818;28;20043;-67
2022/04/19 04:35:42;;;;;;;8.50;5.97;;;6.00;99.90;;;;;;4966033;28;20952;-67
2022/04/19 04:38:08;;;;;;;9.05;6.90;;;6.00;99.90;;;;;;4969492;28;20034;-67
2022/04/19 04:40:34;;;;;;;8.18;6.50;;;6.00;99.90;;;;;;4980610;28;20047;-67
2022/04/19 04:42:59;;;;;;;11.68;6.47;;;6.10;99.90;;;;;;4963844;28;20043;-69
2022/04/19 04:45:26;;;;;;;11.55;6.65;;;6.20;99.90;;;;;;4966294;28;20042;-69
2022/04/19 04:50:36;;;;;;;10.77;6.00;;;6.60;99.90;;;;;;4966037;28;20055;-69
2022/04/19 04:53:02;;;;;;;11.05;5.63;;;6.70;99.90;;;;;;4966297;28;20047;-69
2022/04/19 04:55:28;;;;;;;7.47;6.43;;;6.70;99.90;;;;;;4965197;28;20126;-69
2022/04/19 04:57:57;;;;;;;10.50;6.93;;;6.90;99.90;;;;;;4982848;28;20113;-69
2022/04/19 05:00:25;;;;;;;8.25;6.57;;;7.00;99.90;;;;;;4963567;28;20046;-69
2022/04/19 05:02:50;;;;;;;8.10;6.03;;;7.40;99.90;;;;;;4981808;28;20047;-69
2022/04/19 05:05:16;;;;;;;9.85;5.85;;;8.20;99.90;;;;;;4964855;28;20039;-69
2022/04/19 05:07:42;;;;;;;8.35;5.88;;;9.30;99.90;;;;;;4968549;28;20043;-69
2022/04/19 05:10:08;;;;;;;7.50;5.50;;;10.30;99.90;;;;;;4963904;28;20102;-69
2022/04/19 05:12:33;;;;;;;7.03;5.90;;;11.50;99.90;;;;;;4965706;28;20050;-69
2022/04/19 05:14:59;;;;;;;6.50;5.47;;;12.40;99.50;;;;;;4966663;28;20039;-69
2022/04/19 05:17:24;;;;;;;6.43;4.80;;;13.40;96.50;;;;;;4963729;28;20039;-69
2022/04/19 05:19:52;;;;;;;6.38;5.30;;;14.40;93.30;;;;;;4963615;28;20063;-67
2022/04/19 05:22:17;;;;;;;6.88;4.53;;;15.40;90.40;;;;;;4966022;28;20084;-67
2022/04/19 05:24:43;;;;;;;5.72;4.85;;;16.30;84.70;;;;;;4965824;28;20065;-67
2022/04/19 05:27:09;;;;;;;6.63;4.75;;;17.20;79.60;;;;;;4963745;28;20138;-67
2022/04/19 05:29:34;;;;;;;7.68;5.25;;;18.20;76.10;;;;;;4964859;28;20038;-67
2022/04/19 05:32:00;;;;;;;7.03;5.18;;;19.10;71.40;;;;;;4970148;28;20046;-68
2022/04/19 05:34:25;;;;;;;5.78;5.10;;;20.00;66.90;;;;;;4969746;28;20042;-68
2022/04/19 05:36:51;;;;;;;7.63;5.10;;;20.80;62.50;;;;;;4970002;28;20045;-68
2022/04/19 05:39:17;;;;;;;6.40;5.35;;;21.40;58.90;;;;;;4967175;28;20038;-68
2022/04/19 05:41:43;;;;;;;8.27;6.05;;;22.10;56.90;;;;;;4969598;28;20054;-68
2022/04/19 05:44:09;;;;;;;5.90;5.00;;;22.80;54.80;;;;;;4966065;28;20061;-68
2022/04/19 05:46:36;;;;;;;8.95;5.80;;;23.50;53.30;;;;;;4966113;28;20051;-68
2022/04/19 05:49:04;;;;;;;6.40;5.75;;;24.10;51.90;;;;;;4965588;28;20510;-69
2022/04/19 05:51:31;;;;;;;6.35;5.68;;;24.70;49.00;;;;;;4968284;28;20050;-69
2022/04/19 05:53:56;;;;;;;6.25;5.28;;;25.20;47.20;;;;;;4967815;28;20030;-69
2022/04/19 05:56:22;;;;;;;5.38;4.75;;;25.80;46.00;;;;;;4968056;28;20486;-69
2022/04/19 05:58:48;;;;;;;6.25;5.55;;;26.50;44.90;;;;;;4970722;28;20039;-71
2022/04/19 06:01:13;;;;;;;7.60;5.22;;;27.00;43.70;;;;;;4969957;28;20122;-71
2022/04/19 06:06:23;;;;;;;7.22;5.93;;;28.00;42.20;;;;;;4969538;28;20118;-70
2022/04/19 06:08:53;;;;;;;8.00;5.72;;;28.60;41.00;;;;;;4969366;28;20629;-70
2022/04/19 06:11:19;;;;;;;8.30;5.68;;;28.80;40.20;;;;;;4962978;28;20046;-70
2022/04/19 06:13:45;;;;;;;10.85;6.00;;;28.80;39.80;;;;;;4964266;28;20039;-70
2022/04/19 06:16:11;;;;;;;7.93;7.00;;;28.70;39.00;;;;;;4971056;28;20049;-70
2022/04/19 06:18:37;;;;;;;12.02;7.57;;;28.70;38.90;;;;;;4973043;28;20141;-70
2022/04/19 06:21:04;;;;;;;9.90;7.68;;;28.50;38.60;;;;;;4968800;28;20038;-70
2022/04/19 06:23:31;;;;;;;10.25;6.90;;;27.40;38.30;;;;;;4972251;28;20508;-70
2022/04/19 06:25:56;;;;;;;9.93;7.13;;;26.80;39.50;;;;;;4972889;28;20060;-70
2022/04/19 06:28:22;;;;;;;9.10;6.90;;;26.20;41.00;;;;;;4971354;28;20166;-70
2022/04/19 06:30:48;;;;;;;8.90;6.68;;;25.60;41.40;;;;;;4970746;28;20039;-70
2022/04/19 06:33:13;;;;;;;9.73;6.45;;;24.60;42.40;;;;;;4984325;28;20719;-70
2022/04/19 06:35:39;;;;;;;7.20;6.00;;;23.70;44.60;;;;;;4969584;28;20424;-70
2022/04/19 06:38:05;;;;;;;5.85;5.25;;;22.90;45.20;;;;;;4970663;28;20764;-70
2022/04/19 06:40:31;;;;;;;6.45;5.70;;;21.90;47.60;;;;;;4968794;28;20039;-70
2022/04/19 06:42:57;;;;;;;7.20;5.32;;;21.10;49.10;;;;;;4968858;28;20058;-70
2022/04/19 06:45:23;;;;;;;6.82;5.97;;;20.30;50.50;;;;;;4971694;28;20048;-70
2022/04/19 06:48:00;;;;;;;10.45;5.13;;;19.60;51.60;;;;;;4961024;28;20047;-69
2022/04/19 06:50:25;;;;;;;6.35;5.70;;;18.70;52.30;;;;;;4969142;28;20042;-69
2022/04/19 06:52:52;;;;;;;10.18;5.18;;;17.90;54.60;;;;;;4968836;28;20039;-69
2022/04/19 06:55:19;;;;;;;6.35;5.55;;;17.40;55.80;;;;;;4970223;28;20043;-69
2022/04/19 06:57:48;;;;;;;8.52;5.95;;;17.10;56.70;;;;;;4969501;28;20133;-69
2022/04/19 07:00:15;;;;;;;6.97;5.43;;;16.60;57.70;;;;;;4971001;28;20125;-69
2022/04/19 07:02:40;;;;;;;7.15;5.78;;;16.50;58.30;;;;;;4968427;28;20471;-69
2022/04/19 07:05:06;;;;;;;6.15;4.85;;;16.30;58.60;;;;;;4969247;28;20212;-69
2022/04/19 07:07:33;;;;;;;9.10;5.88;;;16.10;59.70;;;;;;4971692;28;20070;-70
2022/04/19 07:09:59;;;;;;;12.60;5.47;;;16.10;60.80;;;;;;4968865;28;20046;-69
2022/04/19 07:12:24;;;;;;;6.45;4.88;;;16.00;60.70;;;;;;4968080;28;20058;-69
2022/04/19 07:14:50;;;;;;;6.35;5.20;;;16.10;61.40;;;;;;4985300;28;20519;-69
2022/04/19 07:17:16;;;;;;;7.15;5.10;;;16.10;61.20;;;;;;4970541;28;20078;-69
2022/04/19 07:28:04;;;;;;;6.50;4.82;;;16.30;60.70;;;;;;4967809;28;20138;-69
2022/04/19 07:30:29;;;;;;;8.52;5.63;;;16.30;62.70;;;;;;4971423;28;20081;-69
2022/04/19 07:33:00;;;;;;;10.15;6.28;;;16.30;62.10;;;;;;4970273;28;20050;-69
2022/04/19 07:35:26;;;;;;;7.22;5.40;;;16.10;60.40;;;;;;4963567;28;20042;-69
2022/04/19 07:37:51;;;;;;;5.63;4.50;;;16.00;61.70;;;;;;4962697;28;20783;-69
2022/04/19 07:40:18;;;;;;;7.93;5.05;;;16.00;62.10;;;;;;4967346;28;20040;-70
2022/04/19 07:42:43;;;;;;;8.02;5.70;;;15.90;62.70;;;;;;4971118;28;20046;-69
2022/04/19 07:45:10;;;;;;;6.32;3.88;;;16.10;63.50;;;;;;4962220;28;20477;-69
2022/04/19 07:47:36;;;;;;;5.63;3.83;;;16.30;63.10;;;;;;4964431;28;20054;-69
2022/04/19 07:50:02;;;;;;;5.13;3.20;;;16.20;62.20;;;;;;4967501;28;20054;-69
2022/04/19 07:52:28;;;;;;;6.03;3.95;;;16.20;62.40;;;;;;4983295;28;20039;-69
2022/04/19 07:54:53;;;;;;;5.22;3.88;;;16.10;63.20;;;;;;4969258;28;20090;-69
2022/04/19 07:57:20;;;;;;;4.82;3.05;;;16.00;62.80;;;;;;4969389;28;20393;-69
2022/04/19 07:59:46;;;;;;;6.18;3.28;;;16.20;62.90;;;;;;4969873;28;20039;-69
2022/04/19 08:02:13;;;;;;;5.22;3.10;;;16.30;63.60;;;;;;4969829;28;20493;-69
2022/04/19 08:04:39;;;;;;;5.50;3.40;;;16.40;63.30;;;;;;4966160;28;20050;-69
2022/04/19 08:07:05;;;;;;;4.50;3.03;;;16.50;64.60;;;;;;4968035;28;20073;-69
2022/04/19 08:09:30;;;;;;;4.38;3.33;;;16.60;60.80;;;;;;4968192;28;20050;-69
2022/04/19 08:11:56;;;;;;;4.03;2.55;;;16.60;62.60;;;;;;4967870;28;20386;-69
2022/04/19 08:14:21;;;;;;;4.88;3.58;;;16.40;62.20;;;;;;4967813;28;20129;-69
2022/04/19 08:16:47;;;;;;;8.70;3.83;;;16.50;62.20;;;;;;4967454;28;20090;-69
2022/04/19 08:19:12;;;;;;;5.90;3.80;;;16.40;61.00;;;;;;4970540;28;20109;-69
2022/04/19 08:21:38;;;;;;;6.88;4.40;;;16.40;61.50;;;;;;4984246;28;20046;-69
2022/04/19 08:24:04;;;;;;;5.28;3.53;;;16.30;62.50;;;;;;4963947;28;20129;-69
2022/04/19 08:26:30;;;;;;;7.10;3.50;;;16.60;62.70;;;;;;4969543;28;20066;-69
2022/04/19 08:28:55;;;;;;;3.70;2.88;;;16.70;62.80;;;;;;4970246;28;20039;-69
2022/04/19 08:31:22;;;;;;;3.97;3.10;;;16.70;62.00;;;;;;4966505;28;20047;-69
2022/04/19 08:33:47;;;;;;;6.13;3.85;;;16.90;61.90;;;;;;4968706;28;20045;-69
2022/04/19 08:36:13;;;;;;;4.30;2.75;;;16.90;62.50;;;;;;4968756;28;20520;-69
2022/04/19 08:38:39;;;;;;;2.88;2.10;;;16.90;61.40;;;;;;4969278;28;20077;-69
2022/04/19 08:41:05;;;;;;;4.70;2.90;;;17.10;60.30;;;;;;4964584;28;20138;-69
2022/04/19 08:43:31;;;;;;;4.10;3.13;;;16.80;61.80;;;;;;4965302;28;20054;-69
2022/04/19 08:45:57;;;;;;;3.67;2.42;;;16.80;60.30;;;;;;4969106;28;20043;-69
2022/04/19 08:48:26;;;;;;;4.03;2.70;;;16.80;61.30;;;;;;4967194;28;20061;-69
2022/04/19 08:50:54;;;;;;;4.35;2.85;;;16.80;59.80;;;;;;4969226;28;20057;-69
2022/04/19 08:58:49;;;;;;;4.35;3.35;;;17.20;64.10;;;;;;4969161;28;20035;-69
2022/04/19 09:01:14;;;;;;;6.22;3.40;;;17.20;61.20;;;;;;4969457;28;20508;-69
2022/04/19 09:03:41;;;;;;;5.72;3.83;;;17.20;64.80;;;;;;4983206;28;20043;-70
2022/04/19 09:06:07;;;;;;;12.10;3.78;;;17.30;63.70;;;;;;4972813;28;20606;-69
2022/04/19 09:08:33;;;;;;;3.80;2.88;;;17.40;64.60;;;;;;4971479;28;20042;-69
2022/04/19 09:11:08;;;;;;;6.38;3.38;;;17.40;64.40;;;;;;4988144;28;20050;-69
2022/04/19 09:13:35;;;;;;;4.65;3.40;;;17.30;61.60;;;;;;4968207;28;20069;-69
2022/04/19 09:16:05;;;;;;;5.72;2.58;;;17.20;62.60;;;;;;4969907;28;20065;-69
2022/04/19 09:18:33;;;;;;;2.88;2.58;;;17.10;61.70;;;;;;4972475;28;20035;-68
2022/04/19 09:21:00;;;;;;;2.95;2.28;;;17.10;61.90;;;;;;4974081;28;20505;-69
2022/04/19 09:23:29;;;;;;;7.40;2.28;;;17.20;63.60;;;;;;4972007;28;20043;-69
2022/04/19 09:26:00;;;;;;;1.70;1.60;;;17.30;63.50;;;;;;4972894;28;20489;-69
2022/04/19 09:28:27;;;;;;;2.72;2.25;;;17.50;60.90;;;;;;4962807;28;20039;-69
2022/04/19 09:30:58;;;;;;;5.25;2.47;;;17.40;62.10;;;;;;4971645;28;20065;-69
2022/04/19 09:33:27;;;;;;;1.88;1.58;;;17.30;61.00;;;;;;4970608;28;20039;-69
2022/04/19 09:36:04;;;;;;;2.40;1.63;;;17.30;62.40;;;;;;4969244;28;20049;-69
2022/04/19 09:38:33;;;;;;;3.03;1.50;;;17.20;58.70;;;;;;4971397;28;20045;-69
2022/04/19 09:40:59;;;;;;;2.75;1.40;;;17.30;60.10;;;;;;4984097;28;20108;-69
2022/04/19 09:43:24;;;;;;;3.10;1.70;;;17.40;59.20;;;;;;4972606;28;20404;-69
2022/04/19 09:45:54;;;;;;;1.40;0.90;;;17.60;59.60;;;;;;4954508;28;20053;-69
2022/04/19 09:48:21;;;;;;;2.13;1.02;;;17.50;55.10;;;;;;4970492;28;20143;-69
2022/04/19 09:50:49;;;;;;;1.42;1.00;;;17.50;54.00;;;;;;4972554;28;20054;-69
2022/04/19 09:53:19;;;;;;;2.50;1.40;;;17.60;54.80;;;;;;4962731;28;20079;-69
2022/04/19 09:55:47;;;;;;;1.15;0.77;;;17.40;53.30;;;;;;4968922;28;20867;-69
2022/04/19 09:58:14;;;;;;;1.45;0.60;;;17.50;50.30;;;;;;4972340;28;20374;-68
2022/04/19 10:00:40;;;;;;;1.77;0.70;;;17.40;47.90;;;;;;4972793;28;20043;-69
2022/04/19 10:08:56;;;;;;;3.80;0.85;;;17.40;48.90;;;;;;4910797;29;20134;-69
2022/04/19 10:11:25;;;;;;;1.60;0.60;;;17.30;49.50;;;;;;4921857;29;20063;-69
2022/04/19 10:13:53;;;;;;;4.70;0.52;;;17.20;49.20;;;;;;4937916;28;20513;-69
2022/04/19 10:16:18;;;;;;;6.43;0.63;;;17.30;48.40;;;;;;4970946;28;20425;-69
2022/04/19 10:18:45;;;;;;;1.10;0.60;;;17.40;49.40;;;;;;4971014;28;20098;-69
2022/04/19 10:21:19;;;;;;;2.03;1.10;;;17.30;50.30;;;;;;4985452;28;20086;-69
2022/04/19 10:23:45;;;;;;;1.77;1.10;;;17.40;51.40;;;;;;4970127;28;20050;-69
2022/04/19 10:26:31;;;;;;;2.95;1.15;;;17.50;51.50;;;;;;4970262;28;20290;-69
2022/04/19 10:28:58;;;;;;;1.23;1.00;;;17.60;51.90;;;;;;4971665;28;20090;-69
2022/04/19 10:31:28;;;;;;;1.65;1.00;;;17.60;51.00;;;;;;4971586;28;20192;-69
2022/04/19 10:33:54;;;;;;;2.72;1.10;;;17.60;51.20;;;;;;4970533;28;20109;-69
2022/04/19 10:36:42;;;;;;;2.13;0.80;;;17.60;52.10;;;;;;4971490;28;20035;-69
2022/04/19 10:39:10;;;;;;;3.33;0.93;;;17.70;50.60;;;;;;4968884;28;20046;-69
2022/04/19 10:42:05;;;;;;;2.47;0.90;;;17.60;49.60;;;;;;4970409;28;20698;-69
2022/04/19 10:44:41;;;;;;;0.82;0.57;;;17.60;49.80;;;;;;4972665;28;20477;-69
2022/04/19 10:47:11;;;;;;;;;;;17.40;48.20;;;;;;4969724;28;20473;-69
2022/04/19 10:49:51;;;;;;;6.97;0.80;;;17.40;50.00;;;;;;4970129;28;20372;-69
2022/04/19 10:52:43;;;;;;;2.00;0.70;;;17.60;50.10;;;;;;4968516;28;20046;-69
2022/04/19 10:55:18;;;;;;;4.60;0.98;;;17.60;48.60;;;;;;4970827;28;20605;-69
2022/04/19 10:58:12;;;;;;;1.42;0.70;;;17.50;49.60;;;;;;4971763;28;20436;-69
2022/04/19 11:00:42;;;;;;;3.28;1.10;;;17.40;49.30;;;;;;4987362;28;20070;-69
2022/04/19 11:03:18;;;;;;;4.55;0.82;;;17.50;50.00;;;;;;4986068;28;20057;-69
2022/04/19 11:05:50;;;;;;;1.15;0.77;;;17.40;50.60;;;;;;4971563;28;20410;-69
2022/04/19 11:08:25;;;;;;;2.90;1.38;;;17.50;50.80;;;;;;4967162;28;20079;-69
2022/04/19 11:10:52;;;;;;;2.83;1.30;;;17.50;50.30;;;;;;4964601;28;20047;-69
2022/04/19 11:13:31;;;;;;;2.05;1.20;;;17.60;54.20;;;;;;4967456;28;20047;-69
2022/04/19 11:16:06;;;;;;;4.60;2.35;;;17.40;52.90;;;;;;4970674;28;20076;-69
2022/04/19 11:18:35;;;;;;;;;;;17.50;54.10;;;;;;4969199;28;20123;-69
2022/04/19 11:21:04;;;;;;;6.60;1.45;;;17.50;53.30;;;;;;4963512;28;19973;-69
2022/04/19 11:23:43;;;;;;;1.10;0.90;;;17.40;53.60;;;;;;4981834;28;20049;-70
2022/04/19 11:26:28;;;;;;;0.77;0.63;;;17.50;53.50;;;;;;4970771;28;20057;-69
2022/04/19 11:29:09;;;;;;;3.70;0.70;;;17.50;52.70;;;;;;4967073;28;20162;-69
2022/04/19 11:31:44;;;;;;;1.45;1.15;;;17.60;54.50;;;;;;4986528;28;20058;-69
2022/04/19 11:34:10;;;;;;;1.30;0.90;;;17.50;52.80;;;;;;4969966;28;20097;-69
2022/04/19 11:36:37;;;;;;;4.03;1.20;;;17.60;52.80;;;;;;4967101;28;20083;-69
2022/04/19 11:39:03;;;;;;;2.17;0.95;;;17.70;55.50;;;;;;4967635;28;20108;-69
2022/04/19 11:46:58;;;;;;;5.13;1.80;;;17.60;54.10;;;;;;4967354;28;20069;-69
2022/04/19 11:49:28;;;;;;;23.35;2.50;;;17.50;53.90;;;;;;4967477;28;20386;-69
2022/04/19 11:52:02;;;;;;;13.25;1.92;;;17.90;57.40;;;;;;4969198;28;20058;-69
2022/04/19 11:54:32;;;;;;;3.55;1.20;;;18.00;55.00;;;;;;4968562;28;20035;-69
2022/04/19 11:57:00;;;;;;;1.80;0.98;;;17.90;54.20;;;;;;4967423;28;20043;-69
2022/04/19 11:59:37;;;;;;;1.15;0.82;;;17.70;54.10;;;;;;4969008;28;20046;-69
2022/04/19 12:02:11;;;;;;;1.10;0.80;;;17.60;53.10;;;;;;4967737;28;20047;-69
2022/04/19 12:04:37;;;;;;;1.90;0.82;;;18.00;53.90;;;;;;4968453;28;20118;-69
2022/04/19 12:07:03;;;;;;;1.23;1.00;;;17.90;54.80;;;;;;4967303;28;20755;-69
2022/04/19 12:09:32;;;;;;;2.75;1.00;;;17.70;55.90;;;;;;4969234;28;20466;-68
2022/04/19 12:11:58;;;;;;;1.70;0.73;;;17.80;54.60;;;;;;4967889;28;20061;-68
2022/04/19 12:14:31;;;;;;;3.72;0.95;;;17.80;53.60;;;;;;4968417;28;20039;-68
2022/04/19 12:17:02;;;;;;;6.30;2.20;;;17.90;52.50;;;;;;4969064;28;20034;-69
2022/04/19 12:19:35;;;;;;;2.65;1.20;;;18.00;55.20;;;;;;4968596;28;20368;-69
2022/04/19 12:22:13;;;;;;;5.38;1.45;;;17.90;53.40;;;;;;4981421;28;20047;-69
2022/04/19 12:24:55;;;;;;;3.20;0.70;;;17.80;54.10;;;;;;4966244;28;20138;-69
2022/04/19 12:27:29;;;;;;;2.95;1.13;;;17.90;53.80;;;;;;4968059;28;20049;-69
2022/04/19 12:29:59;;;;;;;2.85;1.30;;;18.00;54.80;;;;;;4968443;28;20054;-69
2022/04/19 12:32:26;;;;;;;3.05;1.48;;;18.10;55.40;;;;;;4969352;28;20054;-69
2022/04/19 12:35:06;;;;;;;1.90;1.33;;;18.10;54.10;;;;;;4967525;28;20402;-69
2022/04/19 12:37:31;;;;;;;4.35;1.83;;;18.10;55.00;;;;;;4968153;28;20101;-68
2022/04/19 12:40:01;;;;;;;1.85;1.42;;;17.80;52.00;;;;;;4966834;28;20042;-68
2022/04/19 12:42:27;;;;;;;1.95;1.75;;;17.80;53.90;;;;;;4969770;28;21017;-69
2022/04/19 12:45:06;;;;;;;5.20;1.20;;;17.80;54.80;;;;;;4967812;28;20054;-69
2022/04/19 12:47:32;;;;;;;4.00;1.73;;;17.80;54.50;;;;;;4967506;28;20138;-69
2022/04/19 12:50:08;;;;;;;4.30;1.98;;;17.80;54.90;;;;;;4968277;28;20050;-69
2022/04/19 12:52:34;;;;;;;4.80;1.80;;;17.90;55.80;;;;;;4982182;28;20046;-69
2022/04/19 12:55:00;;;;;;;6.93;1.10;;;18.00;56.70;;;;;;4983476;28;20058;-69
2022/04/19 12:57:26;;;;;;;8.30;1.63;;;18.00;53.80;;;;;;4983023;28;20053;-69
2022/04/19 12:59:52;;;;;;;3.58;1.20;;;18.00;53.50;;;;;;4967865;28;20047;-69
2022/04/19 13:02:19;;;;;;;4.18;1.25;;;18.10;54.00;;;;;;4965254;28;20046;-69
2022/04/19 13:04:45;;;;;;;15.82;1.17;;;18.10;53.90;;;;;;4968644;28;20178;-69
2022/04/19 13:12:40;;;;;;;3.20;1.02;;;18.20;53.80;;;;;;4967215;28;20051;-69
2022/04/19 13:15:06;;;;;;;2.20;1.10;;;18.10;56.10;;;;;;4964404;28;20414;-69
2022/04/19 13:17:34;;;;;;;2.78;1.33;;;18.10;53.70;;;;;;4965734;28;20124;-69
2022/04/19 13:20:00;;;;;;;3.28;1.10;;;18.10;54.20;;;;;;4964998;28;20253;-69
2022/04/19 13:22:26;;;;;;;6.70;1.13;;;18.10;54.30;;;;;;4965817;28;20130;-69
2022/04/19 13:24:52;;;;;;;4.93;1.08;;;18.10;55.60;;;;;;4966404;28;20194;-69
2022/04/19 13:27:18;;;;;;;1.17;0.90;;;18.00;55.00;;;;;;4968533;28;20081;-69
2022/04/19 13:29:44;;;;;;;3.72;1.17;;;18.20;55.10;;;;;;4968318;28;20563;-69
2022/04/19 13:32:11;;;;;;;4.88;0.65;;;18.30;53.00;;;;;;4969995;28;20083;-69
2022/04/19 13:34:38;;;;;;;5.22;1.20;;;18.20;53.50;;;;;;4968486;28;20045;-68
2022/04/19 13:37:04;;;;;;;2.17;1.02;;;18.20;53.20;;;;;;4969793;28;20035;-69
2022/04/19 13:39:30;;;;;;;1.92;1.00;;;18.20;52.90;;;;;;4967698;28;20035;-69